Dierks, Arkansas
Current Conditions -  °F | °C
As of 7:53 AM on Wednesday 26 Nov 2014 (Local Time) from KDEQ Reporting Station
Clear Clear  
Wind Chill: 33°   Ceiling: Unl
Heat Index: 33°   Visibility: 9mi
Dew Point: 31°   Wind: 3mph
Humidity: 92%   Direction: 360°N
Pressure: 30.05"   Gusts: NA
Location:  34.12°N, 94.02°W
Report Text: KDEQ 261353Z AUTO 36003KT 9SM CLR 01/M01 A3005 RMK AO2 SLP177 T00061006
Loading
Personal Weather Stations






























Interactive Weather Map New forecast layout! Learn more

10-Day Weather Forecast

Advertisements
Track Severe Weather on mobile